createdAt,value
2023-05-05T00:00:31.500Z,55.32715
2023-05-05T00:05:31.397Z,55.38965
2023-05-05T00:10:31.459Z,55.50879
2023-05-05T00:15:34.294Z,55.35059
2023-05-05T00:20:31.628Z,55.5625
2023-05-05T00:25:32.693Z,55.44824
2023-05-05T00:30:42.284Z,55.55762
2023-05-05T00:35:31.308Z,55.12207
2023-05-05T00:40:31.452Z,55.33203
2023-05-05T00:45:34.279Z,55.31934
2023-05-05T00:50:32.292Z,55.14648
2023-05-05T00:55:32.327Z,55.61523
2023-05-05T01:00:34.245Z,55.27246
2023-05-05T01:05:32.003Z,55.90918
2023-05-05T01:10:37.570Z,55.99219
2023-05-05T01:15:35.027Z,56.24707
2023-05-05T01:20:37.203Z,56.26855
2023-05-05T01:25:42.661Z,56.78613
2023-05-05T01:30:42.734Z,56.68457
2023-05-05T01:35:33.918Z,56.40234
2023-05-05T01:40:37.057Z,56.27832
2023-05-05T01:45:33.899Z,56.3877
2023-05-05T01:50:32.283Z,56.6084
2023-05-05T01:55:32.376Z,56.31543
2023-05-05T02:00:35.720Z,56.17871
2023-05-05T02:05:32.403Z,56.27441
2023-05-05T02:10:31.811Z,56.50684
2023-05-05T02:15:32.866Z,57.38867
2023-05-05T02:20:32.281Z,57.75391
2023-05-05T02:25:36.245Z,58.23438
2023-05-05T02:30:32.815Z,58.77832
2023-05-05T02:35:36.301Z,59.41113
2023-05-05T02:40:32.763Z,60.90918
2023-05-05T02:45:32.223Z,60.55469
2023-05-05T02:50:31.426Z,60.0293
2023-05-05T02:55:35.828Z,60.59668
2023-05-05T03:00:35.869Z,60.20117
2023-05-05T03:05:32.891Z,60.2666
2023-05-05T03:10:33.921Z,60.60449
2023-05-05T03:15:33.904Z,61.0791
2023-05-05T03:20:31.940Z,60.64648
2023-05-05T03:25:41.687Z,61.5957
2023-05-05T03:30:34.528Z,62.01172
2023-05-05T03:35:31.433Z,61.8125
2023-05-05T03:40:43.037Z,63.59766
2023-05-05T03:45:34.552Z,63.5791
2023-05-05T03:50:31.466Z,62.84082
2023-05-05T03:55:31.332Z,62.92188
2023-05-05T04:00:31.677Z,62.49902
2023-05-05T04:05:31.632Z,62.96875
2023-05-05T04:10:31.648Z,62.05762
2023-05-05T04:15:32.183Z,61.92676
2023-05-05T04:20:31.385Z,62.96875
2023-05-05T04:25:31.654Z,62.2627
2023-05-05T04:30:31.717Z,62.33789
2023-05-05T04:35:31.330Z,61.5752
2023-05-05T04:40:31.435Z,61.70313
2023-05-05T04:45:31.466Z,61.76465
2023-05-05T04:50:33.724Z,61.68848
2023-05-05T04:55:31.337Z,61.15137
2023-05-05T05:00:33.747Z,61.13672
2023-05-05T05:05:31.446Z,61.01855
2023-05-05T05:10:31.574Z,60.86816
2023-05-05T05:15:31.509Z,60.98828
2023-05-05T05:20:31.317Z,60.75293
2023-05-05T05:25:31.363Z,60.67676
2023-05-05T05:30:31.400Z,60.19727
2023-05-05T05:35:31.471Z,60.10352
2023-05-05T05:40:34.318Z,60.08789
2023-05-05T05:45:31.376Z,59.30859
2023-05-05T05:50:31.357Z,58.57227
2023-05-05T05:55:34.403Z,58.50195
2023-05-05T06:00:31.595Z,59.14355
2023-05-05T06:05:31.315Z,59.21875
2023-05-05T06:10:31.521Z,58.97949
2023-05-05T06:15:31.520Z,58.17676
2023-05-05T06:20:31.584Z,57.27539
2023-05-05T06:25:31.499Z,55.65918
2023-05-05T06:30:31.312Z,56.15625
2023-05-05T06:35:32.080Z,55.64063
2023-05-05T06:40:31.841Z,55.21973
2023-05-05T06:45:31.721Z,54.82422
2023-05-05T06:50:31.272Z,54.22852
2023-05-05T06:55:31.492Z,53.33203
2023-05-05T07:00:31.413Z,52.5
2023-05-05T07:05:31.237Z,52.49902
2023-05-05T07:10:31.902Z,52.6709
2023-05-05T07:15:31.272Z,52.31738
2023-05-05T07:20:31.555Z,52.17285
2023-05-05T07:25:31.311Z,52.125
2023-05-05T07:30:31.340Z,51.62305
2023-05-05T07:35:31.659Z,51.56152
2023-05-05T07:40:31.233Z,51.63965
2023-05-05T07:45:31.565Z,51.38281
2023-05-05T07:50:31.508Z,50.82617
2023-05-05T07:55:31.378Z,50.16016
2023-05-05T08:00:31.580Z,50.0918
2023-05-05T08:05:31.348Z,50.19727
2023-05-05T08:10:32.196Z,50.11133
2023-05-05T08:15:31.534Z,49.87988
2023-05-05T08:20:32.098Z,49.60449
2023-05-05T08:25:31.344Z,49.30859
2023-05-05T08:30:34.341Z,49.1123
2023-05-05T08:35:31.220Z,49.10352
2023-05-05T08:40:33.637Z,49.2959
2023-05-05T08:45:32.158Z,50.03418
2023-05-05T08:48:49.604Z,50.43262
2023-05-05T08:53:51.865Z,50.12012
2023-05-05T08:58:48.904Z,50.06738
2023-05-05T09:03:48.776Z,49.73535
2023-05-05T09:08:52.206Z,50.19922
2023-05-05T09:13:48.508Z,49.38965
2023-05-05T09:18:50.905Z,48.55762
2023-05-05T09:24:02.415Z,48.52441
2023-05-05T09:29:04.557Z,48.34863
2023-05-05T09:33:52.927Z,48.24609
2023-05-05T09:39:00.569Z,47.98535
2023-05-05T09:43:59.789Z,48.04102
2023-05-05T09:48:48.771Z,48.75684
2023-05-05T09:53:48.447Z,49.55469
2023-05-05T09:58:48.812Z,49.60449
2023-05-05T10:03:54.119Z,49.85449
2023-05-05T10:08:48.547Z,50.125
2023-05-05T10:13:48.567Z,50.79395
2023-05-05T10:18:51.828Z,50.80078
2023-05-05T10:23:51.300Z,51.2334
2023-05-05T10:28:51.529Z,51.50781
2023-05-05T10:33:52.110Z,51.52441
2023-05-05T10:38:51.710Z,51.91699
2023-05-05T10:43:51.339Z,52.36719
2023-05-05T10:48:51.344Z,52.4873
2023-05-05T10:53:56.716Z,52.84277
2023-05-05T10:58:59.625Z,52.9082
2023-05-05T11:03:48.332Z,52.83984
2023-05-05T11:08:51.374Z,52.92871
2023-05-05T11:13:48.419Z,52.78809
2023-05-05T11:18:48.508Z,53.01367
2023-05-05T11:23:48.733Z,53.05664
2023-05-05T11:29:08.924Z,53.13281
2023-05-05T11:33:48.949Z,53.18262
2023-05-05T11:38:56.753Z,53.57422
2023-05-05T11:43:48.597Z,54.22363
2023-05-05T11:48:54.922Z,54.76367
2023-05-05T11:53:50.497Z,54.69141
2023-05-05T11:58:48.501Z,54.80957
2023-05-05T12:03:48.972Z,54.85645
2023-05-05T12:08:48.453Z,55.03906
2023-05-05T12:13:48.446Z,55.25781
2023-05-05T12:18:49.593Z,55.2627
2023-05-05T12:23:48.461Z,55.47754
2023-05-05T12:28:51.741Z,55.34863
2023-05-05T12:33:49.525Z,55.80566
2023-05-05T12:38:50.994Z,56.03125
2023-05-05T12:43:51.212Z,56.22266
2023-05-05T12:48:48.721Z,56.48535
2023-05-05T12:53:49.770Z,56.63867
2023-05-05T12:58:55.587Z,57.02734
2023-05-05T13:03:48.382Z,57.35352
2023-05-05T13:08:53.797Z,57.5918
2023-05-05T13:13:51.470Z,57.80664
2023-05-05T13:18:53.584Z,58.12012
2023-05-05T13:23:52.569Z,58.38379
2023-05-05T13:28:49.763Z,58.57715
2023-05-05T13:33:48.455Z,58.46094
2023-05-05T13:38:48.458Z,58.87207
2023-05-05T13:43:52.069Z,59.09668
2023-05-05T13:48:48.746Z,59.47949
2023-05-05T13:53:48.553Z,60.48926
2023-05-05T13:58:51.925Z,60.91797
2023-05-05T14:03:48.555Z,60.52637
2023-05-05T14:08:48.481Z,60.38965
2023-05-05T14:13:49.863Z,61.28906
2023-05-05T14:18:48.463Z,62.16504
2023-05-05T14:23:48.456Z,60.78613
2023-05-05T14:28:50.095Z,60.36621
2023-05-05T14:33:48.540Z,60.77539
2023-05-05T14:38:48.458Z,60.72363
2023-05-05T14:43:51.372Z,61.30469
2023-05-05T14:48:48.548Z,59.80957
2023-05-05T14:53:48.460Z,60.19434
2023-05-05T14:58:49.490Z,62.66504
2023-05-05T15:03:48.481Z,64.10449
2023-05-05T15:08:51.121Z,65.67578
2023-05-05T15:13:48.416Z,65.03613
2023-05-05T15:18:48.406Z,64.9502
2023-05-05T15:23:48.475Z,63.15332
2023-05-05T15:28:50.232Z,63.41406
2023-05-05T15:33:49.630Z,62.50391
2023-05-05T15:38:51.268Z,62.56934
2023-05-05T15:43:48.432Z,62.86133
2023-05-05T15:48:48.355Z,62.7627
2023-05-05T15:53:48.392Z,62.52148
2023-05-05T15:58:51.553Z,62.62109
2023-05-05T16:03:48.293Z,62.83105
2023-05-05T16:08:51.692Z,62.66211
2023-05-05T16:13:48.450Z,62.26758
2023-05-05T16:18:48.525Z,62.35645
2023-05-05T16:23:48.372Z,62.39844
2023-05-05T16:28:51.355Z,62.31934
2023-05-05T16:33:48.277Z,62.30273
2023-05-05T16:38:48.447Z,62.69043
2023-05-05T16:43:48.457Z,63.00293
2023-05-05T16:48:48.488Z,62.46387
2023-05-05T16:53:52.523Z,62.42285
2023-05-05T16:58:48.338Z,62.24219
2023-05-05T17:03:48.395Z,62.15625
2023-05-05T17:08:48.477Z,62.12891
2023-05-05T17:13:48.509Z,62.19141
2023-05-05T17:18:48.327Z,62.5332
2023-05-05T17:23:50.989Z,62.42969
2023-05-05T17:28:48.697Z,66.99805
2023-05-05T17:33:48.252Z,68.43262
2023-05-05T17:38:50.979Z,69.90234
2023-05-05T17:43:48.490Z,66.77539
2023-05-05T17:48:51.052Z,64.37598
2023-05-05T17:53:48.336Z,63.94141
2023-05-05T17:58:48.761Z,63.56738
2023-05-05T18:03:48.417Z,63.48242
2023-05-05T18:08:48.538Z,63.60254
2023-05-05T18:13:48.431Z,63.37402
2023-05-05T18:18:49.912Z,63.37305
2023-05-05T18:23:48.771Z,63.33887
2023-05-05T18:28:48.449Z,63.31641
2023-05-05T18:33:48.502Z,62.26953
2023-05-05T18:38:48.455Z,62.17871
2023-05-05T18:43:48.743Z,61.98438
2023-05-05T18:48:48.262Z,62.16992
2023-05-05T18:53:48.299Z,62.23926
2023-05-05T18:58:48.587Z,61.87988
2023-05-05T19:03:49.799Z,62.46875
2023-05-05T19:08:48.955Z,62.50293
2023-05-05T19:13:51.689Z,62.39355
2023-05-05T19:18:48.668Z,62.78809
2023-05-05T19:23:48.306Z,63.00391
2023-05-05T19:28:48.268Z,63.06934
2023-05-05T19:33:51.427Z,63.61328
2023-05-05T19:38:48.224Z,62.98047
2023-05-05T19:43:50.392Z,63.04004
2023-05-05T19:48:48.437Z,63.64063
2023-05-05T19:53:48.332Z,63.18066
2023-05-05T19:59:01.317Z,63.79688
2023-05-05T20:03:48.415Z,63.33203
2023-05-05T20:08:50.881Z,65.07715
2023-05-05T20:13:52.053Z,64.49902
2023-05-05T20:18:48.546Z,65.30469
2023-05-05T20:23:48.844Z,64.79297
2023-05-05T20:28:48.165Z,65.29492
2023-05-05T20:33:48.466Z,65.87109
2023-05-05T20:38:48.433Z,65.34082
2023-05-05T20:43:48.373Z,66.35547
2023-05-05T20:48:48.274Z,66.21875
2023-05-05T20:53:50.413Z,65.89941
2023-05-05T20:58:48.472Z,66.9043
2023-05-05T21:03:48.403Z,66.65527
2023-05-05T21:08:48.261Z,66.82715
2023-05-05T21:13:48.219Z,66.9043
2023-05-05T21:18:51.551Z,67.2627
2023-05-05T21:23:49.910Z,67.44824
2023-05-05T21:28:48.305Z,67.35449
2023-05-05T21:33:48.346Z,67.16406
2023-05-05T21:38:49.597Z,67.5
2023-05-05T21:43:48.308Z,67.32813
2023-05-05T21:48:52.694Z,67.11133
2023-05-05T21:53:48.219Z,68.01855
2023-05-05T21:58:48.343Z,67.50391
2023-05-05T22:03:48.497Z,67.82129
2023-05-05T22:08:48.338Z,67.75684
2023-05-05T22:13:48.298Z,67.75977
2023-05-05T22:18:48.658Z,68.01758
2023-05-05T22:23:48.472Z,67.47168
2023-05-05T22:28:48.307Z,67.48047
2023-05-05T22:33:48.406Z,68.27051
2023-05-05T22:38:48.403Z,67.57031
2023-05-05T22:43:49.539Z,68.0625
2023-05-05T22:48:49.062Z,68.01172
2023-05-05T22:53:49.623Z,68.61719
2023-05-05T22:58:48.495Z,67.69336
2023-05-05T23:03:48.417Z,67.62598
2023-05-05T23:08:48.902Z,68.09082
2023-05-05T23:13:48.816Z,68.19141
2023-05-05T23:18:48.203Z,67.89453
2023-05-05T23:23:50.748Z,68.05469
2023-05-05T23:28:48.271Z,67.90625
2023-05-05T23:33:48.216Z,68.21191
2023-05-05T23:38:48.297Z,67.92871
2023-05-05T23:43:48.261Z,67.91211
2023-05-05T23:48:49.709Z,68.89355
2023-05-05T23:53:48.340Z,67.91211
2023-05-05T23:58:48.235Z,67.9502
